XBDZI MMVR-MMUN
Flight info
| Callsign | XBDZI |
|---|---|
| Flight time | 2h 15m |
| Altitude | 31000 |
| Route | GOTAS1D GOTAS UT65 PAULE PAULE3G |
| Aircraft | SF50/L-BDGRSWY/LB2U2 |
Departure
| Time | 2026-05-07 15:51 |
|---|---|
| Airport | General Heriberto Jara International Airport (MMVR) |
Arrival
| Time | 2026-05-07 18:06 |
|---|---|
| Airport | Cancún International Airport (MMUN) |
| Time | Latitude | Longitude | Altitude | Speed | Heading |
|---|---|---|---|---|---|
| 2026-05-07 15:44 | 19.14061 | -96.18488 | 113 ft | 0 kts | 192° |
| 2026-05-07 15:48 | 19.14048 | -96.18496 | 113 ft | 7 kts | 232° |
| 2026-05-07 15:48 | 19.14071 | -96.18545 | 112 ft | 9 kts | 13° |
| 2026-05-07 15:48 | 19.14182 | -96.18521 | 113 ft | 23 kts | 12° |
| 2026-05-07 15:49 | 19.14334 | -96.18500 | 112 ft | 15 kts | 322° |
| 2026-05-07 15:49 | 19.14357 | -96.18567 | 111 ft | 9 kts | 309° |
| 2026-05-07 15:49 | 19.14415 | -96.18567 | 110 ft | 8 kts | 12° |
| 2026-05-07 15:49 | 19.14477 | -96.18553 | 111 ft | 11 kts | 13° |
| 2026-05-07 15:50 | 19.14548 | -96.18581 | 110 ft | 14 kts | 285° |
| 2026-05-07 15:50 | 19.14568 | -96.18689 | 109 ft | 15 kts | 280° |
| 2026-05-07 15:50 | 19.14476 | -96.18757 | 110 ft | 38 kts | 191° |
| 2026-05-07 15:50 | 19.13970 | -96.18862 | 110 ft | 110 kts | 191° |
| 2026-05-07 15:51 | 19.13023 | -96.19055 | 302 ft | 154 kts | 191° |
| 2026-05-07 15:51 | 19.11984 | -96.19276 | 1084 ft | 157 kts | 190° |
| 2026-05-07 15:51 | 19.10857 | -96.19499 | 1546 ft | 168 kts | 191° |
| 2026-05-07 15:51 | 19.09704 | -96.19733 | 2138 ft | 171 kts | 191° |
| 2026-05-07 15:52 | 19.08515 | -96.19981 | 2657 ft | 177 kts | 191° |
| 2026-05-07 15:52 | 19.07296 | -96.20234 | 3183 ft | 180 kts | 191° |
| 2026-05-07 15:52 | 19.06062 | -96.20490 | 3704 ft | 182 kts | 191° |
| 2026-05-07 15:52 | 19.04814 | -96.20747 | 4236 ft | 183 kts | 192° |
| 2026-05-07 15:53 | 19.03557 | -96.21007 | 4750 ft | 185 kts | 192° |
| 2026-05-07 15:53 | 19.02719 | -96.21181 | 5067 ft | 186 kts | 191° |
| 2026-05-07 15:53 | 19.01002 | -96.21504 | 5683 ft | 189 kts | 184° |
| 2026-05-07 15:53 | 19.00145 | -96.21351 | 5982 ft | 191 kts | 156° |
| 2026-05-07 15:54 | 18.99232 | -96.20386 | 6456 ft | 189 kts | 112° |
| 2026-05-07 15:54 | 18.99156 | -96.19033 | 6894 ft | 187 kts | 73° |
| 2026-05-07 15:54 | 18.99693 | -96.17790 | 7314 ft | 187 kts | 62° |
| 2026-05-07 15:54 | 19.00263 | -96.16547 | 7745 ft | 189 kts | 64° |
| 2026-05-07 15:55 | 19.00807 | -96.15278 | 8167 ft | 190 kts | 65° |
| 2026-05-07 15:55 | 19.01360 | -96.13996 | 8597 ft | 192 kts | 64° |
| 2026-05-07 15:55 | 19.01919 | -96.12711 | 9006 ft | 193 kts | 64° |
| 2026-05-07 15:55 | 19.02481 | -96.11417 | 9414 ft | 195 kts | 65° |
| 2026-05-07 15:56 | 19.03047 | -96.10112 | 9824 ft | 196 kts | 65° |
| 2026-05-07 15:56 | 19.03616 | -96.08801 | 10200 ft | 197 kts | 65° |
| 2026-05-07 15:56 | 19.04179 | -96.07500 | 10579 ft | 197 kts | 65° |
| 2026-05-07 15:56 | 19.04750 | -96.06184 | 10952 ft | 197 kts | 66° |
| 2026-05-07 15:57 | 19.05323 | -96.04866 | 11338 ft | 198 kts | 66° |
| 2026-05-07 15:57 | 19.05895 | -96.03545 | 11733 ft | 198 kts | 67° |
| 2026-05-07 15:57 | 19.06470 | -96.02222 | 12105 ft | 199 kts | 67° |
| 2026-05-07 15:57 | 19.07048 | -96.00889 | 12488 ft | 200 kts | 67° |
| 2026-05-07 15:58 | 19.07627 | -95.99552 | 12873 ft | 201 kts | 67° |
| 2026-05-07 15:58 | 19.08212 | -95.98205 | 13263 ft | 202 kts | 67° |
| 2026-05-07 15:58 | 19.08797 | -95.96855 | 13648 ft | 202 kts | 68° |
| 2026-05-07 15:58 | 19.09385 | -95.95500 | 13997 ft | 204 kts | 68° |
| 2026-05-07 15:59 | 19.09976 | -95.94135 | 14339 ft | 205 kts | 68° |
| 2026-05-07 15:59 | 19.10557 | -95.92755 | 14679 ft | 205 kts | 72° |
| 2026-05-07 15:59 | 19.10791 | -95.91277 | 15013 ft | 204 kts | 91° |
| 2026-05-07 15:59 | 19.10710 | -95.89780 | 15367 ft | 205 kts | 96° |
| 2026-05-07 16:00 | 19.10633 | -95.88292 | 15727 ft | 206 kts | 95° |
| 2026-05-07 16:00 | 19.10555 | -95.86781 | 16087 ft | 207 kts | 96° |
| 2026-05-07 16:00 | 19.10473 | -95.85262 | 16456 ft | 207 kts | 96° |
| 2026-05-07 16:00 | 19.10390 | -95.83734 | 16816 ft | 209 kts | 96° |
| 2026-05-07 16:01 | 19.10308 | -95.82197 | 17180 ft | 210 kts | 96° |
| 2026-05-07 16:01 | 19.10224 | -95.80653 | 17547 ft | 211 kts | 96° |
| 2026-05-07 16:01 | 19.10141 | -95.79100 | 17917 ft | 212 kts | 97° |
| 2026-05-07 16:01 | 19.10055 | -95.77538 | 18272 ft | 213 kts | 97° |
| 2026-05-07 16:02 | 19.10005 | -95.75966 | 18559 ft | 216 kts | 90° |
| 2026-05-07 16:02 | 19.10339 | -95.74393 | 18857 ft | 223 kts | 74° |
| 2026-05-07 16:02 | 19.11057 | -95.72920 | 19159 ft | 227 kts | 64° |
| 2026-05-07 16:02 | 19.11834 | -95.71460 | 19462 ft | 228 kts | 65° |
| 2026-05-07 16:03 | 19.12604 | -95.69981 | 19766 ft | 230 kts | 65° |
| 2026-05-07 16:03 | 19.13387 | -95.68497 | 20073 ft | 232 kts | 65° |
| 2026-05-07 16:03 | 19.14165 | -95.67025 | 20375 ft | 233 kts | 65° |
| 2026-05-07 16:03 | 19.14959 | -95.65520 | 20680 ft | 235 kts | 65° |
| 2026-05-07 16:04 | 19.15758 | -95.64007 | 21016 ft | 236 kts | 65° |
| 2026-05-07 16:04 | 19.16557 | -95.62494 | 21347 ft | 236 kts | 65° |
| 2026-05-07 16:04 | 19.17356 | -95.60976 | 21689 ft | 236 kts | 65° |
| 2026-05-07 16:04 | 19.18158 | -95.59457 | 22026 ft | 236 kts | 65° |
| 2026-05-07 16:05 | 19.18958 | -95.57937 | 22366 ft | 237 kts | 65° |
| 2026-05-07 16:05 | 19.19761 | -95.56414 | 22700 ft | 237 kts | 65° |
| 2026-05-07 16:05 | 19.20565 | -95.54890 | 23035 ft | 237 kts | 65° |
| 2026-05-07 16:05 | 19.21368 | -95.53363 | 23369 ft | 238 kts | 65° |
| 2026-05-07 16:06 | 19.22173 | -95.51835 | 23664 ft | 238 kts | 65° |
| 2026-05-07 16:06 | 19.22978 | -95.50305 | 23943 ft | 238 kts | 65° |
| 2026-05-07 16:06 | 19.23725 | -95.48752 | 24214 ft | 235 kts | 74° |
| 2026-05-07 16:06 | 19.24045 | -95.47080 | 24498 ft | 231 kts | 87° |
| 2026-05-07 16:07 | 19.24257 | -95.45390 | 24778 ft | 232 kts | 85° |
| 2026-05-07 16:07 | 19.24490 | -95.43705 | 25067 ft | 232 kts | 85° |
| 2026-05-07 16:07 | 19.24715 | -95.42016 | 25362 ft | 232 kts | 86° |
| 2026-05-07 16:07 | 19.24938 | -95.40328 | 25659 ft | 232 kts | 85° |
| 2026-05-07 16:08 | 19.25161 | -95.38643 | 25959 ft | 232 kts | 85° |
| 2026-05-07 16:08 | 19.25384 | -95.36954 | 26262 ft | 232 kts | 85° |
| 2026-05-07 16:08 | 19.25608 | -95.35265 | 26569 ft | 231 kts | 85° |
| 2026-05-07 16:08 | 19.25829 | -95.33579 | 26876 ft | 231 kts | 85° |
| 2026-05-07 16:09 | 19.26053 | -95.31891 | 27181 ft | 232 kts | 85° |
| 2026-05-07 16:09 | 19.26275 | -95.30204 | 27497 ft | 232 kts | 85° |
| 2026-05-07 16:09 | 19.26498 | -95.28515 | 27810 ft | 231 kts | 85° |
| 2026-05-07 16:09 | 19.26720 | -95.26829 | 28122 ft | 231 kts | 85° |
| 2026-05-07 16:10 | 19.26940 | -95.25142 | 28435 ft | 231 kts | 85° |
| 2026-05-07 16:10 | 19.27159 | -95.23475 | 28739 ft | 232 kts | 85° |
| 2026-05-07 16:10 | 19.27382 | -95.21787 | 29034 ft | 232 kts | 84° |
| 2026-05-07 16:10 | 19.27604 | -95.20096 | 29342 ft | 232 kts | 84° |
| 2026-05-07 16:11 | 19.27826 | -95.18404 | 29644 ft | 232 kts | 84° |
| 2026-05-07 16:11 | 19.28049 | -95.16712 | 29938 ft | 232 kts | 84° |
| 2026-05-07 16:11 | 19.28270 | -95.15018 | 30194 ft | 232 kts | 84° |
| 2026-05-07 16:11 | 19.28492 | -95.13328 | 30452 ft | 232 kts | 84° |
| 2026-05-07 16:12 | 19.28713 | -95.11640 | 30707 ft | 231 kts | 84° |
| 2026-05-07 16:12 | 19.28935 | -95.09945 | 30869 ft | 236 kts | 84° |
| 2026-05-07 16:12 | 19.29163 | -95.08181 | 30878 ft | 248 kts | 84° |
| 2026-05-07 16:12 | 19.29404 | -95.06338 | 30886 ft | 258 kts | 84° |
| 2026-05-07 16:13 | 19.29453 | -95.04425 | 30888 ft | 264 kts | 95° |
| 2026-05-07 16:13 | 19.29378 | -95.02455 | 30884 ft | 272 kts | 94° |
| 2026-05-07 16:13 | 19.29330 | -95.00431 | 30886 ft | 278 kts | 93° |
| 2026-05-07 16:13 | 19.29281 | -94.98364 | 30884 ft | 284 kts | 94° |
| 2026-05-07 16:14 | 19.29223 | -94.96258 | 30885 ft | 289 kts | 94° |
| 2026-05-07 16:14 | 19.29164 | -94.94121 | 30878 ft | 293 kts | 94° |
| 2026-05-07 16:14 | 19.29105 | -94.91955 | 30880 ft | 296 kts | 94° |
| 2026-05-07 16:14 | 19.29045 | -94.89762 | 30885 ft | 299 kts | 94° |
| 2026-05-07 16:15 | 19.28984 | -94.87555 | 30882 ft | 302 kts | 94° |
| 2026-05-07 16:15 | 19.28861 | -94.83109 | 30887 ft | 307 kts | 94° |
| 2026-05-07 16:16 | 19.28734 | -94.78558 | 30887 ft | 311 kts | 94° |
| 2026-05-07 16:16 | 19.28604 | -94.73963 | 30884 ft | 314 kts | 94° |
| 2026-05-07 16:17 | 19.28473 | -94.69335 | 30890 ft | 315 kts | 95° |
| 2026-05-07 16:17 | 19.28341 | -94.64690 | 30886 ft | 316 kts | 95° |
| 2026-05-07 16:18 | 19.28203 | -94.60043 | 30885 ft | 316 kts | 94° |
| 2026-05-07 16:18 | 19.28071 | -94.55433 | 30888 ft | 315 kts | 94° |
| 2026-05-07 16:19 | 19.27935 | -94.50801 | 30888 ft | 315 kts | 94° |
| 2026-05-07 16:19 | 19.27799 | -94.46160 | 30889 ft | 315 kts | 95° |
| 2026-05-07 16:20 | 19.27659 | -94.41511 | 30893 ft | 317 kts | 95° |
| 2026-05-07 16:20 | 19.27521 | -94.36852 | 30892 ft | 317 kts | 95° |
| 2026-05-07 16:21 | 19.27379 | -94.32182 | 30892 ft | 318 kts | 94° |
| 2026-05-07 16:21 | 19.27236 | -94.27506 | 30892 ft | 318 kts | 94° |
| 2026-05-07 16:22 | 19.27093 | -94.22836 | 30892 ft | 318 kts | 94° |
| 2026-05-07 16:22 | 19.26947 | -94.18165 | 30891 ft | 317 kts | 94° |
| 2026-05-07 16:23 | 19.26800 | -94.13500 | 30893 ft | 317 kts | 95° |
| 2026-05-07 16:23 | 19.26653 | -94.08870 | 30894 ft | 317 kts | 94° |
| 2026-05-07 16:24 | 19.26504 | -94.04201 | 30893 ft | 317 kts | 95° |
| 2026-05-07 16:24 | 19.26355 | -93.99545 | 30894 ft | 317 kts | 95° |
| 2026-05-07 16:25 | 19.26202 | -93.94888 | 30891 ft | 317 kts | 95° |
| 2026-05-07 16:25 | 19.26050 | -93.90235 | 30896 ft | 316 kts | 95° |
| 2026-05-07 16:26 | 19.25896 | -93.85582 | 30898 ft | 316 kts | 95° |
| 2026-05-07 16:26 | 19.25743 | -93.80932 | 30899 ft | 317 kts | 95° |
| 2026-05-07 16:27 | 19.25588 | -93.76273 | 30898 ft | 316 kts | 95° |
| 2026-05-07 16:27 | 19.25432 | -93.71656 | 30900 ft | 316 kts | 95° |
| 2026-05-07 16:28 | 19.25274 | -93.67012 | 30905 ft | 316 kts | 95° |
| 2026-05-07 16:28 | 19.25117 | -93.62370 | 30903 ft | 315 kts | 95° |
| 2026-05-07 16:29 | 19.24958 | -93.57728 | 30889 ft | 315 kts | 95° |
| 2026-05-07 16:29 | 19.24798 | -93.53101 | 30890 ft | 315 kts | 95° |
| 2026-05-07 16:30 | 19.24636 | -93.48467 | 30890 ft | 315 kts | 95° |
| 2026-05-07 16:30 | 19.24475 | -93.43873 | 30890 ft | 314 kts | 95° |
| 2026-05-07 16:31 | 19.24311 | -93.39246 | 30892 ft | 315 kts | 95° |
| 2026-05-07 16:31 | 19.24145 | -93.34613 | 30893 ft | 315 kts | 95° |
| 2026-05-07 16:32 | 19.23979 | -93.29994 | 30895 ft | 314 kts | 95° |
| 2026-05-07 16:32 | 19.23812 | -93.25369 | 30895 ft | 314 kts | 95° |
| 2026-05-07 16:33 | 19.23641 | -93.20754 | 30895 ft | 314 kts | 95° |
| 2026-05-07 16:33 | 19.23473 | -93.16142 | 30897 ft | 314 kts | 95° |
| 2026-05-07 16:34 | 19.23302 | -93.11523 | 30898 ft | 314 kts | 96° |
| 2026-05-07 16:34 | 19.23130 | -93.06910 | 30898 ft | 314 kts | 95° |
| 2026-05-07 16:35 | 19.22957 | -93.02301 | 30900 ft | 314 kts | 96° |
| 2026-05-07 16:35 | 19.22784 | -92.97716 | 30898 ft | 314 kts | 95° |
| 2026-05-07 16:36 | 19.22610 | -92.93101 | 30901 ft | 314 kts | 96° |
| 2026-05-07 16:36 | 19.22434 | -92.88490 | 30901 ft | 314 kts | 96° |
| 2026-05-07 16:37 | 19.22258 | -92.83877 | 30902 ft | 314 kts | 96° |
| 2026-05-07 16:37 | 19.22079 | -92.79265 | 30902 ft | 314 kts | 96° |
| 2026-05-07 16:38 | 19.21900 | -92.74648 | 30901 ft | 314 kts | 96° |
| 2026-05-07 16:38 | 19.21721 | -92.70038 | 30903 ft | 314 kts | 95° |
| 2026-05-07 16:39 | 19.21798 | -92.65434 | 30904 ft | 315 kts | 91° |
| 2026-05-07 16:39 | 19.21905 | -92.60800 | 30905 ft | 315 kts | 92° |
| 2026-05-07 16:40 | 19.22014 | -92.56170 | 30904 ft | 315 kts | 92° |
| 2026-05-07 16:40 | 19.22125 | -92.51536 | 30906 ft | 315 kts | 91° |
| 2026-05-07 16:41 | 19.22231 | -92.46904 | 30905 ft | 315 kts | 92° |
| 2026-05-07 16:41 | 19.22338 | -92.42275 | 30904 ft | 315 kts | 92° |
| 2026-05-07 16:42 | 19.22443 | -92.37638 | 30904 ft | 315 kts | 92° |
| 2026-05-07 16:42 | 19.22546 | -92.33013 | 30906 ft | 315 kts | 92° |
| 2026-05-07 16:43 | 19.22632 | -92.29163 | 30906 ft | 315 kts | 92° |
| 2026-05-07 16:43 | 19.22733 | -92.24533 | 30906 ft | 315 kts | 92° |
| 2026-05-07 16:44 | 19.22836 | -92.19908 | 30906 ft | 314 kts | 92° |
| 2026-05-07 16:44 | 19.22937 | -92.15285 | 30907 ft | 314 kts | 92° |
| 2026-05-07 16:45 | 19.23035 | -92.10661 | 30909 ft | 314 kts | 92° |
| 2026-05-07 16:45 | 19.23134 | -92.06044 | 30906 ft | 314 kts | 92° |
| 2026-05-07 16:46 | 19.23230 | -92.01422 | 30908 ft | 314 kts | 92° |
| 2026-05-07 16:46 | 19.23325 | -91.96811 | 30909 ft | 314 kts | 91° |
| 2026-05-07 16:47 | 19.23419 | -91.92206 | 30910 ft | 313 kts | 91° |
| 2026-05-07 16:47 | 19.23511 | -91.87589 | 30912 ft | 313 kts | 92° |
| 2026-05-07 16:48 | 19.23602 | -91.83001 | 30911 ft | 313 kts | 92° |
| 2026-05-07 16:48 | 19.23692 | -91.78375 | 30909 ft | 313 kts | 92° |
| 2026-05-07 16:49 | 19.23781 | -91.73774 | 30916 ft | 313 kts | 91° |
| 2026-05-07 16:49 | 19.23868 | -91.69179 | 30911 ft | 312 kts | 92° |
| 2026-05-07 16:50 | 19.23953 | -91.64609 | 30912 ft | 312 kts | 91° |
| 2026-05-07 16:50 | 19.24040 | -91.59993 | 30914 ft | 312 kts | 91° |
| 2026-05-07 16:51 | 19.24123 | -91.55398 | 30916 ft | 312 kts | 92° |
| 2026-05-07 16:51 | 19.24206 | -91.50832 | 30914 ft | 312 kts | 92° |
| 2026-05-07 16:52 | 19.24287 | -91.46228 | 30911 ft | 312 kts | 92° |
| 2026-05-07 16:52 | 19.24368 | -91.41648 | 30914 ft | 312 kts | 91° |
| 2026-05-07 16:53 | 19.24448 | -91.37078 | 30909 ft | 312 kts | 91° |
| 2026-05-07 16:53 | 19.24526 | -91.32474 | 30911 ft | 311 kts | 92° |
| 2026-05-07 16:54 | 19.24604 | -91.27909 | 30908 ft | 311 kts | 92° |
| 2026-05-07 16:54 | 19.24681 | -91.23333 | 30906 ft | 311 kts | 91° |
| 2026-05-07 16:55 | 19.24756 | -91.18767 | 30903 ft | 311 kts | 91° |
| 2026-05-07 16:55 | 19.24830 | -91.14167 | 30904 ft | 311 kts | 92° |
| 2026-05-07 16:56 | 19.24903 | -91.09623 | 30900 ft | 311 kts | 92° |
| 2026-05-07 16:56 | 19.25010 | -91.02751 | 30897 ft | 310 kts | 91° |
| 2026-05-07 16:57 | 19.25078 | -90.98194 | 30898 ft | 310 kts | 91° |
| 2026-05-07 16:57 | 19.25147 | -90.93630 | 30896 ft | 310 kts | 92° |
| 2026-05-07 16:58 | 19.25213 | -90.89080 | 30896 ft | 310 kts | 92° |
| 2026-05-07 16:58 | 19.25279 | -90.84509 | 30894 ft | 309 kts | 91° |
| 2026-05-07 16:59 | 19.25344 | -90.79958 | 30894 ft | 309 kts | 91° |
| 2026-05-07 16:59 | 19.25406 | -90.75408 | 30896 ft | 309 kts | 92° |
| 2026-05-07 17:00 | 19.25471 | -90.70878 | 30894 ft | 308 kts | 92° |
| 2026-05-07 17:00 | 19.25532 | -90.66377 | 30898 ft | 307 kts | 92° |
| 2026-05-07 17:01 | 19.25594 | -90.61833 | 30905 ft | 308 kts | 91° |
| 2026-05-07 17:01 | 19.25649 | -90.57309 | 30908 ft | 308 kts | 91° |
| 2026-05-07 17:02 | 19.25713 | -90.52785 | 30907 ft | 308 kts | 91° |
| 2026-05-07 17:02 | 19.25768 | -90.48262 | 30906 ft | 307 kts | 91° |
| 2026-05-07 17:03 | 19.25825 | -90.43749 | 30910 ft | 308 kts | 91° |
| 2026-05-07 17:03 | 19.25877 | -90.39233 | 30909 ft | 308 kts | 91° |
| 2026-05-07 17:04 | 19.25934 | -90.34703 | 30912 ft | 308 kts | 91° |
| 2026-05-07 17:04 | 19.25865 | -90.30163 | 30915 ft | 307 kts | 94° |
| 2026-05-07 17:05 | 19.25788 | -90.25678 | 30917 ft | 306 kts | 93° |
| 2026-05-07 17:05 | 19.25685 | -90.21158 | 30917 ft | 306 kts | 93° |
| 2026-05-07 17:06 | 19.25592 | -90.16658 | 30920 ft | 306 kts | 92° |
| 2026-05-07 17:06 | 19.25495 | -90.12154 | 30919 ft | 306 kts | 93° |
| 2026-05-07 17:07 | 19.25396 | -90.07643 | 30928 ft | 306 kts | 93° |
| 2026-05-07 17:07 | 19.25297 | -90.03136 | 30927 ft | 306 kts | 93° |
| 2026-05-07 17:08 | 19.25196 | -89.98647 | 30930 ft | 305 kts | 92° |
| 2026-05-07 17:08 | 19.25097 | -89.94173 | 30928 ft | 305 kts | 92° |
| 2026-05-07 17:09 | 19.24995 | -89.89677 | 30934 ft | 305 kts | 92° |
| 2026-05-07 17:09 | 19.24891 | -89.85191 | 30936 ft | 306 kts | 92° |
| 2026-05-07 17:10 | 19.24789 | -89.80699 | 30937 ft | 305 kts | 93° |
| 2026-05-07 17:10 | 19.24685 | -89.76231 | 30939 ft | 305 kts | 92° |
| 2026-05-07 17:11 | 19.24578 | -89.71747 | 30944 ft | 305 kts | 92° |
| 2026-05-07 17:11 | 19.24472 | -89.67240 | 30944 ft | 305 kts | 92° |
| 2026-05-07 17:12 | 19.24364 | -89.62762 | 30945 ft | 305 kts | 92° |
| 2026-05-07 17:12 | 19.24255 | -89.58281 | 30948 ft | 304 kts | 92° |
| 2026-05-07 17:13 | 19.24146 | -89.53821 | 30946 ft | 304 kts | 92° |
| 2026-05-07 17:13 | 19.24386 | -89.51612 | 30941 ft | 306 kts | 78° |
| 2026-05-07 17:13 | 19.24994 | -89.49437 | 30947 ft | 307 kts | 74° |
| 2026-05-07 17:14 | 19.26191 | -89.45089 | 30951 ft | 308 kts | 76° |
| 2026-05-07 17:14 | 19.27398 | -89.40738 | 30954 ft | 309 kts | 75° |
| 2026-05-07 17:15 | 19.28597 | -89.36398 | 30959 ft | 309 kts | 75° |
| 2026-05-07 17:15 | 19.29808 | -89.32029 | 30956 ft | 309 kts | 75° |
| 2026-05-07 17:16 | 19.31018 | -89.27645 | 30956 ft | 309 kts | 75° |
| 2026-05-07 17:16 | 19.32217 | -89.23302 | 30960 ft | 309 kts | 75° |
| 2026-05-07 17:17 | 19.33424 | -89.18928 | 30961 ft | 309 kts | 76° |
| 2026-05-07 17:17 | 19.34628 | -89.14557 | 30962 ft | 309 kts | 75° |
| 2026-05-07 17:18 | 19.35831 | -89.10189 | 30961 ft | 310 kts | 75° |
| 2026-05-07 17:18 | 19.37031 | -89.05821 | 30962 ft | 310 kts | 75° |
| 2026-05-07 17:19 | 19.38239 | -89.01433 | 30963 ft | 310 kts | 76° |
| 2026-05-07 17:19 | 19.39440 | -88.97064 | 30968 ft | 310 kts | 75° |
| 2026-05-07 17:20 | 19.40642 | -88.92682 | 30967 ft | 310 kts | 75° |
| 2026-05-07 17:20 | 19.41932 | -88.88353 | 31206 ft | 299 kts | 61° |
| 2026-05-07 17:21 | 19.42902 | -88.86436 | 31305 ft | 295 kts | 73° |
| 2026-05-07 17:21 | 19.43283 | -88.84317 | 31198 ft | 298 kts | 85° |
| 2026-05-07 17:21 | 19.43544 | -88.82096 | 31086 ft | 304 kts | 82° |
| 2026-05-07 17:21 | 19.44026 | -88.79916 | 30979 ft | 309 kts | 75° |
| 2026-05-07 17:22 | 19.45374 | -88.75569 | 30972 ft | 309 kts | 76° |
| 2026-05-07 17:22 | 19.46506 | -88.71179 | 30973 ft | 310 kts | 75° |
| 2026-05-07 17:23 | 19.47730 | -88.66788 | 30977 ft | 310 kts | 75° |
| 2026-05-07 17:23 | 19.48920 | -88.62386 | 30973 ft | 311 kts | 76° |
| 2026-05-07 17:24 | 19.50121 | -88.57986 | 30975 ft | 311 kts | 76° |
| 2026-05-07 17:24 | 19.51311 | -88.53601 | 30976 ft | 311 kts | 75° |
| 2026-05-07 17:25 | 19.52509 | -88.49201 | 30980 ft | 311 kts | 75° |
| 2026-05-07 17:25 | 19.53707 | -88.44788 | 30980 ft | 311 kts | 76° |
| 2026-05-07 17:26 | 19.54901 | -88.40383 | 30983 ft | 311 kts | 76° |
| 2026-05-07 17:26 | 19.56096 | -88.35977 | 30980 ft | 311 kts | 76° |
| 2026-05-07 17:27 | 19.57289 | -88.31563 | 30981 ft | 312 kts | 76° |
| 2026-05-07 17:27 | 19.58485 | -88.27148 | 30985 ft | 312 kts | 76° |
| 2026-05-07 17:28 | 19.59684 | -88.22702 | 30987 ft | 312 kts | 76° |
| 2026-05-07 17:28 | 19.60875 | -88.18292 | 30986 ft | 313 kts | 76° |
| 2026-05-07 17:29 | 19.62069 | -88.13865 | 30983 ft | 313 kts | 76° |
| 2026-05-07 17:29 | 19.63265 | -88.09415 | 30982 ft | 313 kts | 75° |
| 2026-05-07 17:30 | 19.64455 | -88.04986 | 30987 ft | 313 kts | 76° |
| 2026-05-07 17:30 | 19.65652 | -88.00529 | 30991 ft | 314 kts | 75° |
| 2026-05-07 17:31 | 19.66845 | -87.96078 | 30991 ft | 314 kts | 75° |
| 2026-05-07 17:31 | 19.68038 | -87.91626 | 30989 ft | 314 kts | 76° |
| 2026-05-07 17:32 | 19.69038 | -87.87891 | 30994 ft | 314 kts | 76° |
| 2026-05-07 17:32 | 19.70231 | -87.83426 | 30994 ft | 315 kts | 76° |
| 2026-05-07 17:33 | 19.71428 | -87.78949 | 30977 ft | 314 kts | 76° |
| 2026-05-07 17:33 | 19.72024 | -87.76718 | 30662 ft | 313 kts | 76° |
| 2026-05-07 17:33 | 19.72598 | -87.74565 | 30269 ft | 298 kts | 75° |
| 2026-05-07 17:34 | 19.73159 | -87.72458 | 29853 ft | 296 kts | 76° |
| 2026-05-07 17:34 | 19.73711 | -87.70386 | 29459 ft | 296 kts | 76° |
| 2026-05-07 17:34 | 19.74273 | -87.68278 | 29071 ft | 297 kts | 76° |
| 2026-05-07 17:34 | 19.74835 | -87.66168 | 28678 ft | 298 kts | 76° |
| 2026-05-07 17:35 | 19.75400 | -87.64048 | 28286 ft | 299 kts | 76° |
| 2026-05-07 17:35 | 19.75965 | -87.61927 | 27890 ft | 298 kts | 77° |
| 2026-05-07 17:35 | 19.76528 | -87.59807 | 27496 ft | 298 kts | 77° |
| 2026-05-07 17:35 | 19.77089 | -87.57695 | 27101 ft | 297 kts | 77° |
| 2026-05-07 17:36 | 19.77650 | -87.55588 | 26713 ft | 296 kts | 76° |
| 2026-05-07 17:36 | 19.78209 | -87.53480 | 26320 ft | 296 kts | 77° |
| 2026-05-07 17:36 | 19.78766 | -87.51376 | 25930 ft | 296 kts | 76° |
| 2026-05-07 17:36 | 19.79325 | -87.49267 | 25540 ft | 297 kts | 77° |
| 2026-05-07 17:37 | 19.79885 | -87.47160 | 25149 ft | 297 kts | 77° |
| 2026-05-07 17:37 | 19.80445 | -87.45052 | 24756 ft | 296 kts | 76° |
| 2026-05-07 17:37 | 19.81002 | -87.42944 | 24369 ft | 297 kts | 76° |
| 2026-05-07 17:37 | 19.81725 | -87.40885 | 24020 ft | 301 kts | 66° |
| 2026-05-07 17:38 | 19.82863 | -87.39011 | 24011 ft | 302 kts | 56° |
| 2026-05-07 17:38 | 19.84118 | -87.37224 | 24010 ft | 301 kts | 56° |
| 2026-05-07 17:38 | 19.85349 | -87.35429 | 24005 ft | 301 kts | 57° |
| 2026-05-07 17:38 | 19.86579 | -87.33637 | 24007 ft | 299 kts | 56° |
| 2026-05-07 17:39 | 19.88097 | -87.32142 | 23983 ft | 302 kts | 34° |
| 2026-05-07 17:39 | 19.90089 | -87.31441 | 23988 ft | 306 kts | 11° |
| 2026-05-07 17:39 | 19.92215 | -87.31288 | 23996 ft | 306 kts | 6° |
| 2026-05-07 17:39 | 19.94341 | -87.31172 | 23996 ft | 306 kts | 6° |
| 2026-05-07 17:40 | 19.96461 | -87.30985 | 23998 ft | 306 kts | 8° |
| 2026-05-07 17:40 | 19.98582 | -87.30779 | 23985 ft | 306 kts | 8° |
| 2026-05-07 17:40 | 20.00719 | -87.30599 | 23722 ft | 310 kts | 7° |
| 2026-05-07 17:40 | 20.02844 | -87.30432 | 23304 ft | 309 kts | 7° |
| 2026-05-07 17:41 | 20.04966 | -87.30258 | 22890 ft | 303 kts | 8° |
| 2026-05-07 17:41 | 20.07051 | -87.30078 | 22490 ft | 298 kts | 8° |
| 2026-05-07 17:41 | 20.09105 | -87.29903 | 22099 ft | 294 kts | 8° |
| 2026-05-07 17:41 | 20.11138 | -87.29733 | 21712 ft | 292 kts | 7° |
| 2026-05-07 17:42 | 20.13152 | -87.29565 | 21333 ft | 289 kts | 8° |
| 2026-05-07 17:42 | 20.15148 | -87.29396 | 20948 ft | 286 kts | 8° |
| 2026-05-07 17:42 | 20.16369 | -87.29292 | 20714 ft | 285 kts | 8° |
| 2026-05-07 17:42 | 20.18337 | -87.29126 | 20344 ft | 282 kts | 8° |
| 2026-05-07 17:43 | 20.20283 | -87.28962 | 19971 ft | 279 kts | 8° |
| 2026-05-07 17:43 | 20.22208 | -87.28800 | 19608 ft | 276 kts | 8° |
| 2026-05-07 17:43 | 20.24119 | -87.28639 | 19238 ft | 274 kts | 8° |
| 2026-05-07 17:43 | 20.26012 | -87.28480 | 18878 ft | 271 kts | 8° |
| 2026-05-07 17:44 | 20.27882 | -87.28322 | 18523 ft | 268 kts | 8° |
| 2026-05-07 17:44 | 20.29735 | -87.28166 | 18145 ft | 266 kts | 8° |
| 2026-05-07 17:44 | 20.31570 | -87.28010 | 17782 ft | 264 kts | 8° |
| 2026-05-07 17:44 | 20.33396 | -87.27856 | 17432 ft | 263 kts | 8° |
| 2026-05-07 17:45 | 20.35219 | -87.27702 | 17084 ft | 263 kts | 8° |
| 2026-05-07 17:45 | 20.37036 | -87.27548 | 16740 ft | 261 kts | 8° |
| 2026-05-07 17:45 | 20.38847 | -87.27396 | 16396 ft | 261 kts | 8° |
| 2026-05-07 17:45 | 20.40652 | -87.27243 | 16052 ft | 259 kts | 8° |
| 2026-05-07 17:46 | 20.42450 | -87.27091 | 15712 ft | 259 kts | 8° |
| 2026-05-07 17:46 | 20.44240 | -87.26939 | 15357 ft | 258 kts | 8° |
| 2026-05-07 17:46 | 20.46030 | -87.26788 | 15007 ft | 257 kts | 8° |
| 2026-05-07 17:46 | 20.47781 | -87.26640 | 14671 ft | 255 kts | 8° |
| 2026-05-07 17:47 | 20.49546 | -87.26491 | 14333 ft | 254 kts | 8° |
| 2026-05-07 17:47 | 20.51305 | -87.26343 | 14000 ft | 253 kts | 9° |
| 2026-05-07 17:47 | 20.53057 | -87.26194 | 13650 ft | 253 kts | 9° |
| 2026-05-07 17:47 | 20.54806 | -87.26045 | 13302 ft | 251 kts | 8° |
| 2026-05-07 17:48 | 20.56525 | -87.25899 | 12974 ft | 250 kts | 9° |
| 2026-05-07 17:48 | 20.58253 | -87.25747 | 12643 ft | 249 kts | 8° |
| 2026-05-07 17:48 | 20.59982 | -87.25599 | 12314 ft | 248 kts | 8° |
| 2026-05-07 17:48 | 20.61700 | -87.25455 | 11985 ft | 247 kts | 8° |
| 2026-05-07 17:49 | 20.63412 | -87.25311 | 11664 ft | 246 kts | 7° |
| 2026-05-07 17:49 | 20.65097 | -87.25169 | 11340 ft | 245 kts | 8° |
| 2026-05-07 17:49 | 20.66799 | -87.25024 | 11014 ft | 244 kts | 7° |
| 2026-05-07 17:49 | 20.68489 | -87.24882 | 10692 ft | 244 kts | 7° |
| 2026-05-07 17:50 | 20.70180 | -87.24738 | 10372 ft | 242 kts | 7° |
| 2026-05-07 17:50 | 20.71857 | -87.24596 | 10050 ft | 241 kts | 7° |
| 2026-05-07 17:50 | 20.73524 | -87.24454 | 9716 ft | 240 kts | 6° |
| 2026-05-07 17:50 | 20.75193 | -87.24312 | 9387 ft | 240 kts | 7° |
| 2026-05-07 17:51 | 20.76859 | -87.24170 | 9066 ft | 240 kts | 6° |
| 2026-05-07 17:51 | 20.78525 | -87.24029 | 8752 ft | 239 kts | 7° |
| 2026-05-07 17:51 | 20.80188 | -87.23889 | 8432 ft | 240 kts | 6° |
| 2026-05-07 17:51 | 20.81852 | -87.23747 | 8114 ft | 239 kts | 6° |
| 2026-05-07 17:52 | 20.83514 | -87.23606 | 7801 ft | 238 kts | 7° |
| 2026-05-07 17:52 | 20.85142 | -87.23469 | 7491 ft | 238 kts | 7° |
| 2026-05-07 17:52 | 20.86797 | -87.23328 | 7179 ft | 238 kts | 6° |
| 2026-05-07 17:52 | 20.88454 | -87.23188 | 6864 ft | 240 kts | 6° |
| 2026-05-07 17:53 | 20.90106 | -87.23046 | 6550 ft | 238 kts | 7° |
| 2026-05-07 17:53 | 20.91780 | -87.22902 | 6223 ft | 237 kts | 7° |
| 2026-05-07 17:53 | 20.93404 | -87.22764 | 5898 ft | 236 kts | 8° |
| 2026-05-07 17:53 | 20.95041 | -87.22624 | 5588 ft | 236 kts | 7° |
| 2026-05-07 17:54 | 20.96659 | -87.22489 | 5281 ft | 232 kts | 7° |
| 2026-05-07 17:54 | 20.98270 | -87.22351 | 4976 ft | 233 kts | 7° |
| 2026-05-07 17:54 | 20.99882 | -87.22213 | 4667 ft | 233 kts | 6° |
| 2026-05-07 17:54 | 21.01489 | -87.22082 | 4353 ft | 231 kts | 7° |
| 2026-05-07 17:55 | 21.03093 | -87.21942 | 4049 ft | 232 kts | 8° |
| 2026-05-07 17:55 | 21.04266 | -87.21839 | 3823 ft | 234 kts | 7° |
| 2026-05-07 17:55 | 21.05876 | -87.21704 | 3515 ft | 231 kts | 8° |
| 2026-05-07 17:55 | 21.07472 | -87.21567 | 3206 ft | 229 kts | 8° |
| 2026-05-07 17:56 | 21.09053 | -87.21433 | 2910 ft | 228 kts | 7° |
| 2026-05-07 17:56 | 21.10632 | -87.21299 | 2601 ft | 227 kts | 7° |
| 2026-05-07 17:56 | 21.12210 | -87.21164 | 2295 ft | 228 kts | 8° |
| 2026-05-07 17:56 | 21.13756 | -87.20914 | 1992 ft | 222 kts | 21° |
| 2026-05-07 17:57 | 21.15100 | -87.20194 | 1960 ft | 212 kts | 39° |
| 2026-05-07 17:57 | 21.15906 | -87.19609 | 1964 ft | 211 kts | 39° |
| 2026-05-07 17:57 | 21.17552 | -87.18437 | 1962 ft | 212 kts | 40° |
| 2026-05-07 17:57 | 21.18568 | -87.17339 | 1959 ft | 210 kts | 60° |
| 2026-05-07 17:58 | 21.19206 | -87.15968 | 1967 ft | 202 kts | 77° |
| 2026-05-07 17:58 | 21.19422 | -87.14507 | 1964 ft | 196 kts | 94° |
| 2026-05-07 17:58 | 21.19233 | -87.13061 | 1962 ft | 196 kts | 109° |
| 2026-05-07 17:58 | 21.18670 | -87.11751 | 1965 ft | 192 kts | 124° |
| 2026-05-07 17:59 | 21.17917 | -87.10571 | 1966 ft | 191 kts | 125° |
| 2026-05-07 17:59 | 21.17184 | -87.09377 | 1969 ft | 192 kts | 124° |
| 2026-05-07 17:59 | 21.16459 | -87.08196 | 1975 ft | 179 kts | 125° |
| 2026-05-07 17:59 | 21.15816 | -87.07164 | 1963 ft | 154 kts | 126° |
| 2026-05-07 18:00 | 21.15239 | -87.06274 | 1963 ft | 140 kts | 127° |
| 2026-05-07 18:00 | 21.14691 | -87.05421 | 1969 ft | 138 kts | 126° |
| 2026-05-07 18:00 | 21.14163 | -87.04557 | 1981 ft | 139 kts | 126° |
| 2026-05-07 18:00 | 21.13636 | -87.03699 | 1979 ft | 139 kts | 123° |
| 2026-05-07 18:01 | 21.13138 | -87.02820 | 1976 ft | 137 kts | 128° |
| 2026-05-07 18:01 | 21.12577 | -87.01994 | 1988 ft | 138 kts | 126° |
| 2026-05-07 18:01 | 21.12032 | -87.01146 | 1986 ft | 138 kts | 126° |
| 2026-05-07 18:01 | 21.11503 | -87.00283 | 1993 ft | 138 kts | 125° |
| 2026-05-07 18:02 | 21.10435 | -86.98575 | 1988 ft | 138 kts | 126° |
| 2026-05-07 18:02 | 21.09899 | -86.97717 | 1890 ft | 141 kts | 124° |
| 2026-05-07 18:02 | 21.09365 | -86.96862 | 1704 ft | 133 kts | 126° |
| 2026-05-07 18:03 | 21.08876 | -86.96069 | 1539 ft | 118 kts | 126° |
| 2026-05-07 18:03 | 21.08455 | -86.95375 | 1392 ft | 100 kts | 120° |
| 2026-05-07 18:03 | 21.08093 | -86.94757 | 1268 ft | 97 kts | 122° |
| 2026-05-07 18:03 | 21.07729 | -86.94153 | 1141 ft | 94 kts | 121° |
| 2026-05-07 18:04 | 21.07380 | -86.93578 | 1029 ft | 90 kts | 123° |
| 2026-05-07 18:04 | 21.07022 | -86.92997 | 912 ft | 97 kts | 120° |
| 2026-05-07 18:04 | 21.06661 | -86.92414 | 792 ft | 89 kts | 120° |
| 2026-05-07 18:04 | 21.06317 | -86.91868 | 672 ft | 87 kts | 120° |
| 2026-05-07 18:05 | 21.05991 | -86.91334 | 564 ft | 86 kts | 120° |
| 2026-05-07 18:05 | 21.05656 | -86.90790 | 434 ft | 90 kts | 118° |
| 2026-05-07 18:05 | 21.05261 | -86.90243 | 340 ft | 92 kts | 126° |
| 2026-05-07 18:05 | 21.04893 | -86.89647 | 248 ft | 99 kts | 125° |
| 2026-05-07 18:06 | 21.04499 | -86.89029 | 82 ft | 100 kts | 126° |
| 2026-05-07 18:06 | 21.04132 | -86.88449 | 35 ft | 87 kts | 130° |
| 2026-05-07 18:06 | 21.03827 | -86.87964 | 27 ft | 71 kts | 124° |
| 2026-05-07 18:06 | 21.03627 | -86.87619 | 29 ft | 32 kts | 102° |
| 2026-05-07 18:07 | 21.03594 | -86.87388 | 27 ft | 32 kts | 96° |
| 2026-05-07 18:07 | 21.03527 | -86.87182 | 25 ft | 27 kts | 123° |
| 2026-05-07 18:07 | 21.03433 | -86.87029 | 24 ft | 23 kts | 123° |
| 2026-05-07 18:07 | 21.03351 | -86.86897 | 24 ft | 20 kts | 124° |
| 2026-05-07 18:08 | 21.03277 | -86.86779 | 24 ft | 19 kts | 124° |
| 2026-05-07 18:08 | 21.03201 | -86.86659 | 24 ft | 20 kts | 124° |
| 2026-05-07 18:08 | 21.03151 | -86.86560 | 24 ft | 9 kts | 51° |
| 2026-05-07 18:08 | 21.03202 | -86.86521 | 23 ft | 10 kts | 31° |
| 2026-05-07 18:09 | 21.03267 | -86.86473 | 23 ft | 12 kts | 32° |
| 2026-05-07 18:09 | 21.03344 | -86.86419 | 23 ft | 14 kts | 33° |
| 2026-05-07 18:09 | 21.03413 | -86.86370 | 23 ft | 12 kts | 20° |
| 2026-05-07 18:09 | 21.03452 | -86.86417 | 23 ft | 7 kts | 263° |
| 2026-05-07 18:10 | 21.03420 | -86.86444 | 23 ft | 7 kts | 214° |
| 2026-05-07 18:10 | 21.03396 | -86.86435 | 23 ft | 4 kts | 122° |
| 2026-05-07 18:10 | 21.03380 | -86.86410 | 23 ft | 0 kts | 123° |